WEATHER DATA

TODAY
Time Temp. Dewp. Hum. Wind dir Wind speed Wind gust Bar. 1h Prec. 24h Prec.
00:02 8.6 6.4 86 225 0.3 1.1 1021.3 0.2020 0.0000
00:12 8.5 6.3 86 237 0.3 1.7 1021.2 0.1010 0.0000
00:23 8.4 6.2 86 225 0.3 1.4 1021.3 0.0000 0.0000
00:33 8.3 6.1 86 220 0.3 1.4 1021.4 0.0000 0.0000
00:42 8.2 6 86 225 0.3 1.7 1021.4 0.0000 0.0000
00:53 8.2 6.2 87 225 0.3 1.4 1021.5 0.0000 0.0000
01:03 8.1 5.9 86 232 0.8 1.7 1021.5 0.0000 0.0000
01:13 8.1 5.9 86 217 0.3 1.7 1021.5 0.0000 0.0000
01:23 8 5.8 86 235 0.8 2.2 1021.5 0.0000 0.0000
01:34 7.9 5.7 86 243 0.8 1.7 1021.5 0.0000 0.0000
01:44 7.9 5.7 86 240 0.8 2.2 1021.6 0.0000 0.0000
01:53 7.9 5.7 86 242 0.8 2.2 1021.6 0.0000 0.0000
02:04 7.8 5.8 87 239 0.8 2.2 1021.7 0.0000 0.0000
02:14 7.8 5.8 87 235 0.8 2.2 1021.8 0.0000 0.0000
02:24 7.7 5.7 87 233 0.8 1.4 1021.7 0.0000 0.0000
02:34 7.7 5.7 87 210 0.8 1.7 1021.7 0.0000 0.0000
02:45 7.6 5.6 87 221 0.3 1.4 1021.8 0.0000 0.0000
02:55 7.5 5.5 87 194 0.3 1.1 1021.7 0.0000 0.0000
03:04 7.5 5.5 87 239 0.3 1.4 1021.6 0.0000 0.0000
03:15 7.4 5.5 88 249 0.8 1.7 1021.5 0.0000 0.0000
03:25 7.4 5.5 88 270 0.3 1.4 1021.5 0.0000 0.0000
03:35 7.3 5.4 88 225 0.3 1.1 1021.6 0.0000 0.0000
03:45 7.3 5.4 88 233 0.3 1.4 1021.7 0.0000 0.0000
03:56 7.1 5.2 88 225 0.3 1.1 1021.8 0.0000 0.0000
04:06 7 5.3 89 220 0.3 1.4 1021.8 0.0000 0.0000
04:15 6.9 5.2 89 270 0.3 1.7 1021.9 0.0000 0.0000
04:25 6.7 5 89 235 0.3 1.4 1021.9 0.0000 0.0000
04:36 6.6 4.9 89 217 0.3 1.1 1021.8 0.0000 0.0000
04:46 6.5 4.8 89 225 0.3 1.1 1021.9 0.0000 0.0000
04:56 6.4 4.7 89 270 0.3 1.1 1022 0.0000 0.0000
05:06 6.3 4.6 89 270 0.3 2.5 1022 0.0000 0.0000
05:17 6.1 4.4 89 225 0.3 1.7 1022 0.0000 0.0000
05:26 6.1 4.6 90 233 0.3 0.8 1022.1 0.0000 0.0000
05:36 6 4.5 90 270 0.3 1.4 1022.1 0.0000 0.0000
05:47 5.9 4.4 90 270 0.3 1.4 1022.1 0.0000 0.0000
05:57 5.8 4.3 90 270 0.3 1.1 1022.1 0.0000 0.0000
06:07 5.7 4.2 90 270 0.3 1.4 1022.3 0.0000 0.0000
06:17 5.7 4.3 91 270 0.3 1.7 1022.3 0.0000 0.0000
06:27 5.6 4.2 91 270 0.3 1.4 1022.3 0.0000 0.0000
06:37 5.6 4.2 91 270 0.8 2.2 1022.4 0.0000 0.0000
06:47 5.5 4.1 91 270 0.3 1.4 1022.4 0.0000 0.0000
06:58 5.5 4.1 91 232 0.8 2.2 1022.4 0.0000 0.0000
07:08 5.5 4.1 91 204 0.3 1.4 1022.5 0.0000 0.0000
07:18 5.4 4.1 91 225 0.3 1.4 1022.5 0.0000 0.0000
07:28 5.3 4 91 225 0.3 1.1 1022.7 0.0000 0.0000
07:38 5.3 4 91 225 0.3 1.1 1022.8 0.0000 0.0000
07:48 5.2 3.9 91 233 0.3 1.1 1022.8 0.1010 0.1000
07:58 5.2 3.9 91 236 0.3 1.1 1023 0.1010 0.1000
08:08 5.1 3.8 91 270 0.3 1.7 1023.1 0.1010 0.1000
08:19 5.1 3.8 91 270 0.3 1.4 1023.3 0.1010 0.1000
08:29 5.1 3.8 91 305 0.3 1.1 1023.4 0.1010 0.1000
08:39 5.1 3.8 91 270 0.3 1.1 1023.6 0.1010 0.1000
08:49 5.2 3.9 91 260 0.8 1.7 1023.7 0.0000 0.1000
08:59 5.3 4 91 270 0.3 1.4 1023.9 0.0000 0.1000
09:09 5.5 4.3 92 236 0.3 1.4 1024 0.0000 0.1000
09:19 5.7 4.5 92 233 0.3 1.7 1024.1 0.0000 0.1000
09:30 5.9 4.5 91 246 0.8 2.5 1024.1 0.0000 0.1000
09:40 6.2 4.8 91 244 0.8 2.5 1024.2 0.0000 0.1000
09:50 6.4 5 91 246 1.1 2.5 1024.2 0.0000 0.1000
10:00 6.6 5.1 90 257 1.1 3.1 1024.3 0.0000 0.1000
10:10 6.9 5.4 90 242 1.1 3.1 1024.4 0.0000 0.1000
10:20 7.1 5.4 89 246 1.1 2.5 1024.5 0.0000 0.1000
10:30 7.3 5.6 89 270 1.1 2.8 1024.6 0.0000 0.1000
10:41 7.6 5.9 89 261 1.1 3.6 1024.6 0.0000 0.1000
10:51 7.8 5.9 88 270 1.1 2.8 1024.7 0.0000 0.1000
11:01 8.1 6.1 87 258 1.4 3.9 1024.7 0.0000 0.1000
11:10 8.3 6.1 86 252 1.4 3.6 1024.7 0.0000 0.1000
11:21 8.6 6.2 85 260 1.1 3.1 1024.8 0.0000 0.1000
11:31 8.8 6.2 84 256 1.4 3.9 1024.8 0.0000 0.1000
11:41 9 6.3 83 270 1.4 4.7 1024.9 0.0000 0.1000
11:51 9 6.1 82 278 1.4 4.2 1024.9 0.0000 0.1000
12:02 9.2 6.1 81 270 1.4 4.2 1025 0.0000 0.1000
12:12 9.5 6.2 80 270 1.4 3.9 1025 0.0000 0.1000
12:21 9.8 6.3 79 244 1.4 3.9 1025.1 0.0000 0.1000
12:32 9.7 6.1 78 288 1.4 5 1025 0.0000 0.1000
12:42 9.8 6 77 260 1.4 3.9 1025 0.0000 0.1000
12:52 9.9 5.9 76 277 1.4 3.1 1025 0.0000 0.1000
13:02 10.1 5.9 75 270 1.4 3.6 1024.9 0.0000 0.1000
13:13 10.1 5.9 75 256 1.4 3.1 1024.9 0.0000 0.1000
13:23 10.5 6.1 74 270 1.4 3.6 1024.8 0.0000 0.1000
13:32 10.7 5.9 72 259 1.4 5 1024.9 0.0000 0.1000
13:42 10.5 5.5 71 282 1.1 3.1 1024.9 0.0000 0.1000
13:53 10.4 5.6 72 270 1.1 3.6 1024.9 0.0000 0.1000
14:03 10.3 5.5 72 270 0.8 2.8 1024.8 0.0000 0.1000
14:13 10.5 5.7 72 296 1.4 3.9 1024.8 0.0000 0.1000
14:23 11 5.5 69 270 1.7 5.6 1024.7 0.0000 0.1000
14:34 11.2 5.5 68 255 1.7 3.9 1024.8 0.0000 0.1000
14:43 11.5 5.6 67 254 1.4 3.9 1024.8 0.0000 0.1000
14:53 11.9 5.1 63 286 1.4 3.1 1024.8 0.0000 0.1000
15:04 11.8 5 63 293 1.4 3.9 1024.8 0.0000 0.1000
15:14 11.9 4.6 61 284 1.1 2.8 1024.8 0.0000 0.1000
15:24 12.1 5 62 270 1.7 3.9 1024.8 0.0000 0.1000
15:34 11.9 5.1 63 280 1.1 3.6 1024.8 0.0000 0.1000
15:45 11.7 4.9 63 281 1.1 3.1 1024.8 0.0000 0.1000
15:54 11.6 4.8 63 270 0.8 2.2 1024.8 0.0000 0.1000
16:04 11.6 5 64 270 1.1 2.8 1024.8 0.0000 0.1000
16:15 11.6 4.3 61 261 1.4 3.9 1024.7 0.0000 0.1000
16:25 11.6 4.6 62 252 0.8 3.6 1024.8 0.0000 0.1000
16:35 11.5 4.2 61 270 1.1 4.2 1024.8 0.0000 0.1000
16:45 11.4 4.4 62 270 1.1 3.1 1024.8 0.0000 0.1000
16:56 11.2 4.4 63 270 1.1 2.8 1024.8 0.0000 0.1000
17:05 11.1 4.6 64 280 1.4 4.7 1024.8 0.0000 0.1000
17:16 11 4.5 64 289 1.1 3.1 1024.8 0.0000 0.1000
17:25 10.8 4.5 65 276 1.4 3.1 1024.9 0.0000 0.1000

DAY STATISTIC

2019-02-19
TEMPERATURE
AVERAGE
8.1
HIGH
12.1
15:24
LOW
5.1
08:08
PRESSURE
AVERAGE
1023.4
HIGH
1025.1
12:21
LOW
1021.2
00:12
DEWPOINT
AVERAGE
5.1
HIGH
6.4
00:02
LOW
3.8
08:08
HUMIDITY
AVERAGE
82
HIGH
92
09:09
LOW
61
15:14
WIND SPEED
AVERAGE
0.8
HIGH
1.7
14:23
WIND GUST
AVERAGE
2.4
HIGH
5.6
14:23
WIND DIRECTION
PREVAILING
W
55.8%
N
0.0
NE
0.0
E
0.0
SE
0.0
S
1.9
SW
39.4
W
55.8
NW
2.9
PRECIPITATION
RAIN HOUR
0.2
RAIN DAY
0.1
TEMPERATURE (°C)
LOW
5.1
HIGH
12.1
AVERAGE
8.1
PRESSURE (hpa)
LOW
1021.2
HIGH
1025.1
AVERAGE
1023.4
DEVICE